Time;durP1;ratioP1;P1;durP2;ratioP2;P2;SDS_P1;SDS_P2;PMS_P1;PMS_P2;Temp;Humidity;BMP_temperature;BMP_pressure;BME280_temperature;BME280_humidity;BME280_pressure;Samples;Min_cycle;Max_cycle;Signal;HPM_P1;HPM_P2
2021/08/24 00:00:02;;;;;;;;;;;;;;;22.11;49.55;102557.47;5126859;27;20022;-68
2021/08/24 00:02:38;;;;;;;;;;;;;;;22.10;49.55;102553.88;5122809;27;19938;-67
2021/08/24 00:05:07;;;;;;;;;;;;;;;22.11;49.60;102558.31;5129871;27;19923;-68
2021/08/24 00:07:35;;;;;;;;;;;;;;;22.12;49.66;102562.78;5123300;27;19931;-68
2021/08/24 00:10:04;;;;;;;;;;;;;;;22.13;49.77;102566.31;5113542;27;19923;-68
2021/08/24 00:12:32;;;;;;;;;;;;;;;22.13;50.09;102555.53;5127613;27;19984;-67
2021/08/24 00:15:01;;;;;;;;;;;;;;;22.13;50.09;102563.63;5120578;27;19928;-68
2021/08/24 00:17:29;;;;;;;;;;;;;;;22.14;50.00;102565.38;5122663;27;20524;-67
2021/08/24 00:19:57;;;;;;;;;;;;;;;22.13;50.06;102561.81;5130490;27;19997;-68
2021/08/24 00:22:25;;;;;;;;;;;;;;;22.14;49.89;102565.38;5123795;27;20395;-67
2021/08/24 00:24:53;;;;;;;;;;;;;;;22.14;49.50;102563.59;5127512;27;19964;-67
2021/08/24 00:27:21;;;;;;;;;;;;;;;22.14;50.03;102560.00;5129179;27;19961;-68
2021/08/24 00:29:48;;;;;;;;;;;;;;;22.13;49.77;102563.63;5131013;27;19980;-67
2021/08/24 00:32:18;;;;;;;;;;;;;;;22.12;49.96;102564.59;5125783;27;19981;-67
2021/08/24 00:34:46;;;;;;;;;;;;;;;22.10;49.74;102564.66;5116740;27;19933;-68
2021/08/24 00:37:14;;;;;;;;;;;;;;;22.10;49.38;102559.25;5121254;27;19924;-68
2021/08/24 00:39:41;;;;;;;;;;;;;;;22.11;49.37;102562.84;5121005;27;19924;-67
2021/08/24 00:42:10;;;;;;;;;;;;;;;22.11;49.34;102569.09;5126418;27;20426;-67
2021/08/24 00:44:38;;;;;;;;;;;;;;;22.11;48.67;102561.00;5128829;27;20272;-68
2021/08/24 00:47:08;;;;;;;;;;;;;;;22.12;49.43;102561.91;5123113;27;19923;-67
2021/08/24 00:49:38;;;;;;;;;;;;;;;22.11;49.68;102558.31;5125157;27;19995;-67
2021/08/24 00:52:08;;;;;;;;;;;;;;;22.12;49.18;102559.22;5125514;27;20911;-67
2021/08/24 00:54:36;;;;;;;;;;;;;;;22.13;48.68;102563.63;5128362;27;20402;-67
2021/08/24 00:57:08;;;;;;;;;;;;;;;22.12;49.38;102565.47;5128268;27;20288;-68
2021/08/24 00:59:36;;;;;;;;;;;;;;;22.13;49.62;102569.03;5127310;27;20141;-68
2021/08/24 01:02:04;;;;;;;;;;;;;;;22.12;49.02;102565.47;5119269;27;19954;-68
2021/08/24 01:04:33;;;;;;;;;;;;;;;22.13;48.69;102569.91;5112983;27;20656;-67
2021/08/24 01:07:05;;;;;;;;;;;;;;;22.12;49.62;102565.47;5121760;27;20018;-67
2021/08/24 01:09:42;;;;;;;;;;;;;;;22.09;49.65;102565.63;5119129;27;19930;-67
2021/08/24 01:12:17;;;;;;;;;;;;;;;22.10;49.27;102577.25;5117289;27;19935;-67
2021/08/24 01:14:47;;;;;;;;;;;;;;;22.10;48.58;102572.72;5125533;27;20371;-67
2021/08/24 01:17:17;;;;;;;;;;;;;;;22.11;48.40;102573.63;5116413;27;19942;-67
2021/08/24 01:20:12;;;;;;;;;;;;;;;22.10;48.51;102575.44;5125116;27;19972;-67
2021/08/24 01:22:55;;;;;;;;;;;;;;;22.12;48.29;102581.63;5129474;27;19927;-67
2021/08/24 01:25:26;;;;;;;;;;;;;;;22.11;48.52;102579.03;5123422;28;19924;-67
2021/08/24 01:28:03;;;;;;;;;;;;;;;22.12;48.40;102581.63;5126463;28;19924;-67
2021/08/24 01:30:43;;;;;;;;;;;;;;;22.13;48.22;102577.09;5121419;27;20435;-67
2021/08/24 01:33:14;;;;;;;;;;;;;;;22.13;47.79;102575.31;5118957;28;20015;-67
2021/08/24 01:36:12;;;;;;;;;;;;;;;22.13;47.99;102575.31;5122709;27;20015;-67
2021/08/24 01:38:45;;;;;;;;;;;;;;;22.13;48.22;102571.72;5123365;28;19928;-67
2021/08/24 01:41:17;;;;;;;;;;;;;;;22.13;48.53;102574.41;5123245;27;19983;-67
2021/08/24 01:43:51;;;;;;;;;;;;;;;22.13;48.20;102574.41;5123799;28;19931;-67
2021/08/24 01:46:23;;;;;;;;;;;;;;;22.12;47.97;102576.25;5117920;27;19928;-68
2021/08/24 01:48:54;;;;;;;;;;;;;;;22.13;48.08;102579.81;5117239;28;20391;-67
2021/08/24 01:51:24;;;;;;;;;;;;;;;22.13;48.35;102577.09;5123152;27;20406;-67
2021/08/24 01:53:55;;;;;;;;;;;;;;;22.09;49.60;102568.31;5121847;28;19966;-67
2021/08/24 01:56:24;;;;;;;;;;;;;;;22.09;48.96;102571.00;5117165;28;19982;-67
2021/08/24 01:58:54;;;;;;;;;;;;;;;22.09;48.52;102570.13;5118023;28;20011;-67
2021/08/24 02:01:25;;;;;;;;;;;;;;;22.09;48.03;102567.41;5123628;27;19938;-67
2021/08/24 02:03:55;;;;;;;;;;;;;;;22.10;48.18;102571.88;5124043;27;19935;-67
2021/08/24 02:06:26;;;;;;;;;;;;;;;22.10;48.03;102563.78;5126096;27;20007;-68
2021/08/24 02:08:57;;;;;;;;;;;;;;;22.09;48.51;102571.00;5127051;27;19934;-67
2021/08/24 02:11:27;;;;;;;;;;;;;;;22.10;48.16;102572.72;5127992;27;20288;-67
2021/08/24 02:13:55;;;;;;;;;;;;;;;22.10;48.27;102570.03;5124352;27;19931;-67
2021/08/24 02:16:25;;;;;;;;;;;;;;;22.10;48.69;102564.66;5123840;27;19923;-67
2021/08/24 02:18:55;;;;;;;;;;;;;;;22.10;48.34;102575.44;5127006;27;19930;-67
2021/08/24 02:21:25;;;;;;;;;;;;;;;22.09;48.85;102571.00;5128138;27;19923;-67
2021/08/24 02:23:58;;;;;;;;;;;;;;;22.10;48.18;102566.47;5127322;27;20264;-67
2021/08/24 02:26:28;;;;;;;;;;;;;;;22.10;48.59;102574.56;5125567;27;19927;-67
2021/08/24 02:28:57;;;;;;;;;;;;;;;22.09;48.38;102575.50;5120794;27;20005;-68
2021/08/24 02:31:29;;;;;;;;;;;;;;;22.09;48.77;102575.50;5123550;27;19970;-67
2021/08/24 02:34:02;;;;;;;;;;;;;;;22.08;48.60;102576.47;5130678;27;19924;-67
2021/08/24 02:36:32;;;;;;;;;;;;;;;22.07;48.40;102582.81;5128355;27;19931;-67
2021/08/24 02:39:04;;;;;;;;;;;;;;;22.07;47.96;102583.66;5132531;27;19962;-67
2021/08/24 02:41:34;;;;;;;;;;;;;;;22.07;47.90;102586.38;5120598;27;19933;-67
2021/08/24 02:44:07;;;;;;;;;;;;;;;22.08;48.36;102587.25;5123963;27;19924;-67
2021/08/24 02:46:37;;;;;;;;;;;;;;;22.08;47.91;102587.25;5126109;27;20368;-67
2021/08/24 02:49:07;;;;;;;;;;;;;;;22.08;48.00;102595.34;5126038;27;20105;-67
2021/08/24 02:51:35;;;;;;;;;;;;;;;22.08;48.17;102592.66;5124779;27;19923;-67
2021/08/24 02:54:07;;;;;;;;;;;;;;;22.07;48.44;102588.19;5124620;27;20349;-67
2021/08/24 02:56:35;;;;;;;;;;;;;;;22.07;48.87;102591.75;5123547;27;19923;-67
2021/08/24 02:59:03;;;;;;;;;;;;;;;22.07;48.91;102593.59;5130273;27;19966;-67
2021/08/24 03:01:31;;;;;;;;;;;;;;;22.07;48.85;102588.19;5128467;27;19931;-67
2021/08/24 03:03:59;;;;;;;;;;;;;;;22.07;48.41;102593.59;5129098;27;20215;-67
2021/08/24 03:06:28;;;;;;;;;;;;;;;22.07;48.66;102586.38;5126478;27;19931;-67
2021/08/24 03:08:56;;;;;;;;;;;;;;;22.07;48.56;102580.97;5120732;27;19931;-67
2021/08/24 03:11:29;;;;;;;;;;;;;;;22.05;48.70;102583.75;5123324;27;19923;-67
2021/08/24 03:13:59;;;;;;;;;;;;;;;22.07;48.47;102583.66;5128808;27;20447;-67
2021/08/24 03:16:29;;;;;;;;;;;;;;;22.03;47.64;102585.63;5117405;27;20238;-66
2021/08/24 03:18:59;;;;;;;;;;;;;;;22.04;48.00;102587.38;5125607;27;20380;-67
2021/08/24 03:21:30;;;;;;;;;;;;;;;22.03;48.06;102587.47;5124850;27;20437;-67
2021/08/24 03:23:58;;;;;;;;;;;;;;;22.03;47.69;102580.22;5123883;27;20466;-67
2021/08/24 03:26:28;;;;;;;;;;;;;;;22.05;47.40;102585.59;5120740;27;20013;-67
2021/08/24 03:28:57;;;;;;;;;;;;;;;22.04;48.19;102597.31;5132198;27;19950;-67
2021/08/24 03:31:26;;;;;;;;;;;;;;;22.05;46.87;102599.06;5132090;27;19927;-67
2021/08/24 03:33:54;;;;;;;;;;;;;;;22.05;47.22;102599.91;5130677;27;19924;-67
2021/08/24 03:36:22;;;;;;;;;;;;;;;22.05;47.01;102599.91;5126631;27;20022;-67
2021/08/24 03:38:50;;;;;;;;;;;;;;;22.05;46.95;102596.38;5125003;27;19952;-67
2021/08/24 03:41:18;;;;;;;;;;;;;;;22.03;47.06;102593.72;5130059;27;20014;-66
2021/08/24 03:43:47;;;;;;;;;;;;;;;22.05;47.13;102596.38;5126147;27;19930;-67
2021/08/24 03:46:15;;;;;;;;;;;;;;;22.04;47.07;102598.16;5119946;27;19942;-67
2021/08/24 03:48:43;;;;;;;;;;;;;;;22.06;47.04;102600.78;5130919;27;19927;-67
2021/08/24 03:51:11;;;;;;;;;;;;;;;22.04;46.79;102598.16;5125938;27;19950;-67
2021/08/24 03:53:39;;;;;;;;;;;;;;;22.06;47.02;102606.16;5124123;27;19935;-67
2021/08/24 03:56:08;;;;;;;;;;;;;;;22.04;47.05;102603.56;5128225;27;20343;-67
2021/08/24 03:58:36;;;;;;;;;;;;;;;22.02;46.79;102596.47;5126267;27;19923;-67
2021/08/24 04:01:12;;;;;;;;;;;;;;;22.04;47.10;102597.31;5127665;27;19946;-67
2021/08/24 04:03:40;;;;;;;;;;;;;;;22.02;48.06;102605.47;5125553;27;19928;-67
2021/08/24 04:06:08;;;;;;;;;;;;;;;22.00;47.46;102603.78;5123525;27;20022;-67
2021/08/24 04:08:36;;;;;;;;;;;;;;;22.00;47.11;102610.03;5114984;27;19924;-67
2021/08/24 04:11:04;;;;;;;;;;;;;;;22.01;46.86;102605.50;5127955;27;20375;-67
2021/08/24 04:13:32;;;;;;;;;;;;;;;22.00;46.64;102609.16;5124533;27;19931;-67
2021/08/24 04:16:04;;;;;;;;;;;;;;;22.01;46.78;102610.91;5125029;27;19951;-67
2021/08/24 04:18:33;;;;;;;;;;;;;;;22.00;46.81;102610.03;5124038;27;20018;-67
2021/08/24 04:21:01;;;;;;;;;;;;;;;22.00;46.87;102614.56;5122252;27;19934;-67
2021/08/24 04:23:29;;;;;;;;;;;;;;;21.99;46.89;102608.28;5125413;27;20005;-67
2021/08/24 04:25:59;;;;;;;;;;;;;;;21.98;47.11;102611.91;5125272;27;19924;-67
2021/08/24 04:28:28;;;;;;;;;;;;;;;22.00;47.13;102611.88;5118195;27;20295;-67
2021/08/24 04:30:56;;;;;;;;;;;;;;;22.00;47.29;102609.16;5125650;27;19927;-67
2021/08/24 04:33:24;;;;;;;;;;;;;;;22.00;47.12;102610.03;5125746;27;19962;-67
2021/08/24 04:35:55;;;;;;;;;;;;;;;22.00;47.31;102601.94;5123279;27;19959;-67
2021/08/24 04:38:23;;;;;;;;;;;;;;;22.00;47.19;102601.94;5125381;27;19923;-67
2021/08/24 04:40:51;;;;;;;;;;;;;;;22.01;47.28;102601.00;5130139;27;19951;-67
2021/08/24 04:43:19;;;;;;;;;;;;;;;22.01;47.32;102602.81;5126026;27;19923;-67
2021/08/24 04:45:47;;;;;;;;;;;;;;;22.01;47.52;102597.41;5122716;27;19982;-68
2021/08/24 04:48:15;;;;;;;;;;;;;;;22.01;48.44;102606.41;5123813;27;19927;-66
2021/08/24 04:50:43;;;;;;;;;;;;;;;21.99;47.56;102597.50;5117683;27;19928;-67
2021/08/24 04:53:13;;;;;;;;;;;;;;;22.00;48.42;102604.63;5120739;27;20021;-68
2021/08/24 04:55:41;;;;;;;;;;;;;;;21.99;47.93;102599.34;5129819;27;19957;-68
2021/08/24 04:58:13;;;;;;;;;;;;;;;22.00;47.63;102601.09;5126250;27;19930;-69
2021/08/24 05:00:41;;;;;;;;;;;;;;;22.00;47.75;102601.94;5124378;27;20492;-68
2021/08/24 05:03:09;;;;;;;;;;;;;;;22.01;47.75;102602.81;5117879;27;19931;-67
2021/08/24 05:05:37;;;;;;;;;;;;;;;22.01;47.89;102608.19;5122816;27;20004;-65
2021/08/24 05:08:05;;;;;;;;;;;;;;;22.01;48.77;102605.50;5123393;27;19935;-67
2021/08/24 05:10:35;;;;;;;;;;;;;;;22.02;48.72;102612.66;5123112;27;20346;-69
2021/08/24 05:13:03;;;;;;;;;;;;;;;22.07;49.38;102607.91;5121112;27;19927;-67
2021/08/24 05:15:31;;;;;;;;;;;;;;;22.13;50.13;102613.03;5118162;27;20010;-68
2021/08/24 05:17:59;;;;;;;;;;;;;;;22.17;50.62;102616.47;5120808;27;20001;-66
2021/08/24 05:20:27;;;;;;;;;;;;;;;22.21;50.71;102609.97;5125587;27;20018;-66
2021/08/24 05:22:57;;;;;;;;;;;;;;;22.19;50.89;102610.06;5119584;27;19924;-67
2021/08/24 05:25:26;;;;;;;;;;;;;;;22.19;50.55;102618.16;5125749;27;19970;-67
2021/08/24 05:27:55;;;;;;;;;;;;;;;22.17;51.19;102620.03;5124593;28;19934;-65
2021/08/24 05:30:25;;;;;;;;;;;;;;;22.17;50.87;102616.47;5118466;27;20000;-67
2021/08/24 05:32:54;;;;;;;;;;;;;;;22.18;50.83;102618.19;5114439;28;20284;-66
2021/08/24 05:35:23;;;;;;;;;;;;;;;22.17;50.41;102625.41;5129238;27;19962;-67
2021/08/24 05:37:51;;;;;;;;;;;;;;;22.18;49.95;102626.28;5130101;27;19924;-67
2021/08/24 05:40:19;;;;;;;;;;;;;;;22.21;51.01;102620.75;5130184;27;19932;-67
2021/08/24 05:42:47;;;;;;;;;;;;;;;22.24;51.08;102628.69;5123937;27;19955;-67
2021/08/24 05:45:16;;;;;;;;;;;;;;;22.24;50.71;102630.53;5120160;27;19954;-67
2021/08/24 05:47:44;;;;;;;;;;;;;;;22.24;50.75;102633.22;5125485;27;20074;-67
2021/08/24 05:50:12;;;;;;;;;;;;;;;22.22;50.82;102633.28;5126807;27;19932;-67
2021/08/24 05:52:40;;;;;;;;;;;;;;;22.24;50.37;102633.22;5129032;27;20279;-67
2021/08/24 05:55:09;;;;;;;;;;;;;;;22.24;50.54;102641.31;5124435;27;19923;-67
2021/08/24 05:57:37;;;;;;;;;;;;;;;22.26;50.84;102636.69;5122495;27;19949;-66
2021/08/24 06:00:06;;;;;;;;;;;;;;;22.27;51.35;102635.75;5122214;27;20414;-66
2021/08/24 06:02:39;;;;;;;;;;;;;;;22.26;50.90;102642.97;5131638;27;19924;-66
2021/08/24 06:05:08;;;;;;;;;;;;;;;22.24;51.31;102644.00;5133882;27;19923;-66
2021/08/24 06:07:36;;;;;;;;;;;;;;;22.21;51.41;102651.28;5128570;27;19966;-66
2021/08/24 06:10:05;;;;;;;;;;;;;;;22.24;51.48;102652.94;5131775;27;19935;-66
2021/08/24 06:12:33;;;;;;;;;;;;;;;22.25;51.64;102657.41;5124863;27;19931;-66
2021/08/24 06:15:02;;;;;;;;;;;;;;;22.26;51.75;102661.84;5125319;27;20336;-66
2021/08/24 06:17:30;;;;;;;;;;;;;;;22.28;51.80;102659.09;5124392;27;19924;-66
2021/08/24 06:19:59;;;;;;;;;;;;;;;22.27;51.73;102668.09;5129622;27;19923;-66
2021/08/24 06:22:27;;;;;;;;;;;;;;;22.28;51.77;102665.34;5133586;27;19963;-66
2021/08/24 06:24:55;;;;;;;;;;;;;;;22.28;51.86;102662.63;5125279;27;20570;-67
2021/08/24 06:27:25;;;;;;;;;;;;;;;22.32;50.91;102666.94;5120551;27;20114;-66
2021/08/24 06:29:53;;;;;;;;;;;;;;;22.32;51.60;102663.38;5129664;27;19931;-67
2021/08/24 06:32:27;;;;;;;;;;;;;;;22.34;51.57;102667.75;5128269;27;20022;-67
2021/08/24 06:34:55;;;;;;;;;;;;;;;22.35;51.47;102663.22;5139422;27;20292;-66
2021/08/24 06:37:24;;;;;;;;;;;;;;;22.33;51.23;102662.44;5123882;27;19931;-67
2021/08/24 06:39:52;;;;;;;;;;;;;;;22.33;50.94;102659.75;5123854;27;19923;-67
2021/08/24 06:42:20;;;;;;;;;;;;;;;22.34;51.14;102665.06;5125286;27;20014;-67
2021/08/24 06:44:48;;;;;;;;;;;;;;;22.36;50.94;102668.59;5125787;27;20379;-67
2021/08/24 06:47:15;;;;;;;;;;;;;;;22.36;51.25;102662.31;5124863;27;20021;-67
2021/08/24 06:49:43;;;;;;;;;;;;;;;22.32;51.09;102668.78;5131158;27;19935;-68
2021/08/24 06:52:11;;;;;;;;;;;;;;;22.41;51.54;102667.50;5129880;27;20402;-68
2021/08/24 06:54:40;;;;;;;;;;;;;;;22.43;51.03;102668.28;5122350;27;19931;-67
2021/08/24 06:57:08;;;;;;;;;;;;;;;22.40;51.45;102671.13;5124082;27;19935;-67
2021/08/24 06:59:37;;;;;;;;;;;;;;;22.41;51.63;102673.75;5103112;27;20569;-67
2021/08/24 07:02:06;;;;;;;;;;;;;;;22.38;51.79;102677.47;5099061;27;20504;-67
2021/08/24 07:04:35;;;;;;;;;;;;;;;22.37;51.86;102678.41;5104554;27;19931;-67
2021/08/24 07:07:03;;;;;;;;;;;;;;;22.38;51.83;102672.09;5103058;27;19958;-67
2021/08/24 07:09:31;;;;;;;;;;;;;;;22.38;51.78;102680.16;5098059;27;19931;-67
2021/08/24 07:12:00;;;;;;;;;;;;;;;22.35;51.62;102688.41;5103496;27;20443;-67
2021/08/24 07:14:28;;;;;;;;;;;;;;;22.33;51.18;102686.69;5104402;27;19931;-67
2021/08/24 07:16:56;;;;;;;;;;;;;;;22.33;50.91;102698.34;5102092;27;20038;-66
2021/08/24 07:19:24;;;;;;;;;;;;;;;22.36;50.62;102703.66;5103040;27;20399;-66
2021/08/24 07:21:52;;;;;;;;;;;;;;;22.37;50.62;102697.28;5102004;27;19931;-65
2021/08/24 07:24:20;;;;;;;;;;;;;;;22.41;50.86;102697.16;5101135;27;19963;-65
2021/08/24 07:26:48;;;;;;;;;;;;;;;22.43;51.14;102700.66;5107310;27;20022;-65
2021/08/24 07:29:18;;;;;;;;;;;;;;;22.42;51.11;102698.88;5106269;27;19931;-65
2021/08/24 07:31:45;;;;;;;;;;;;;;;22.41;50.76;102697.16;5105634;27;20102;-65
2021/08/24 07:34:13;;;;;;;;;;;;;;;22.42;50.69;102696.19;5105374;27;19981;-65
2021/08/24 07:36:41;;;;;;;;;;;;;;;22.40;50.98;102698.97;5102387;27;20115;-65
2021/08/24 07:39:09;;;;;;;;;;;;;;;22.40;50.75;102706.19;5102718;27;19981;-65
2021/08/24 07:41:37;;;;;;;;;;;;;;;22.41;50.80;102706.13;5105514;27;20006;-65
2021/08/24 07:44:05;;;;;;;;;;;;;;;22.40;50.91;102707.06;5105288;27;20307;-65
2021/08/24 07:46:34;;;;;;;;;;;;;;;22.42;51.15;102715.97;5105337;27;19931;-65
2021/08/24 07:49:03;;;;;;;;;;;;;;;22.47;51.16;102704.94;5103265;27;20054;-65
2021/08/24 07:51:31;;;;;;;;;;;;;;;22.50;51.30;102708.38;5098426;27;20046;-65
2021/08/24 07:54:00;;;;;;;;;;;;;;;22.52;51.32;102705.59;5105428;27;20429;-65
2021/08/24 07:56:28;;;;;;;;;;;;;;;22.53;51.02;102710.06;5103640;27;19971;-65
2021/08/24 07:58:56;;;;;;;;;;;;;;;22.53;50.54;102704.66;5105347;27;19932;-65
2021/08/24 08:01:25;;;;;;;;;;;;;;;22.52;50.30;102705.59;5104769;27;20036;-65
2021/08/24 08:03:55;;;;;;;;;;;;;;;22.48;50.32;102710.28;5101106;27;20018;-65
2021/08/24 08:06:22;;;;;;;;;;;;;;;22.44;50.46;102711.34;5101099;27;19942;-66
2021/08/24 08:08:51;;;;;;;;;;;;;;;22.45;50.46;102710.41;5102864;27;21065;-65
2021/08/24 08:11:19;;;;;;;;;;;;;;;22.47;50.76;102718.41;5104911;27;19932;-65
2021/08/24 08:13:47;;;;;;;;;;;;;;;22.49;50.95;102716.53;5104606;27;19941;-65
2021/08/24 08:16:16;;;;;;;;;;;;;;;22.53;50.76;102715.44;5104044;27;19985;-65
2021/08/24 08:18:44;;;;;;;;;;;;;;;22.55;50.41;102711.72;5099786;27;20985;-65
2021/08/24 08:21:13;;;;;;;;;;;;;;;22.58;50.36;102715.25;5100803;27;20066;-65
2021/08/24 08:23:41;;;;;;;;;;;;;;;22.60;50.24;102716.03;5104137;27;19932;-65
2021/08/24 08:26:09;;;;;;;;;;;;;;;22.61;50.11;102718.66;5105689;27;20027;-65
2021/08/24 08:28:37;;;;;;;;;;;;;;;22.64;50.14;102718.53;5102910;27;20544;-65
2021/08/24 08:31:05;;;;;;;;;;;;;;;22.67;50.31;102712.97;5102215;27;20011;-65
2021/08/24 08:33:33;;;;;;;;;;;;;;;22.68;50.34;102714.72;5097189;27;19931;-65
2021/08/24 08:36:01;;;;;;;;;;;;;;;22.70;50.38;102718.22;5104181;27;19938;-65
2021/08/24 08:38:30;;;;;;;;;;;;;;;22.67;50.46;102721.06;5103871;27;21418;-65
2021/08/24 08:41:02;;;;;;;;;;;;;;;22.67;50.05;102712.97;5101977;27;20030;-65
2021/08/24 08:43:38;;;;;;;;;;;;;;;22.68;49.85;102705.75;5103499;27;19939;-65
2021/08/24 08:46:10;;;;;;;;;;;;;;;22.69;49.93;102704.81;5100536;27;19931;-65
2021/08/24 08:48:41;;;;;;;;;;;;;;;22.68;50.29;102714.72;5096725;27;19963;-65
2021/08/24 08:51:21;;;;;;;;;;;;;;;22.70;50.37;102710.13;5104745;27;19931;-66
2021/08/24 08:53:54;;;;;;;;;;;;;;;22.73;50.35;102714.50;5104373;27;19953;-66
2021/08/24 08:56:27;;;;;;;;;;;;;;;22.73;50.49;102722.59;5103714;27;20026;-66
2021/08/24 08:58:58;;;;;;;;;;;;;;;22.73;50.13;102717.19;5103236;27;19962;-66
2021/08/24 09:01:34;;;;;;;;;;;;;;;22.74;49.87;102721.66;5097459;27;19936;-66
2021/08/24 09:04:09;;;;;;;;;;;;;;;22.74;49.56;102720.78;5102026;27;20061;-66
2021/08/24 09:06:38;;;;;;;;;;;;;;;22.76;49.24;102714.38;5103259;27;20380;-67
2021/08/24 09:09:08;;;;;;;;;;;;;;;22.80;49.45;102713.25;5102768;27;20014;-65
2021/08/24 09:11:38;;;;;;;;;;;;;;;22.83;49.67;102713.09;5102438;27;19931;-65
2021/08/24 09:14:08;;;;;;;;;;;;;;;22.85;49.93;102718.41;5098548;27;20409;-65
2021/08/24 09:16:37;;;;;;;;;;;;;;;22.85;50.15;102713.03;5099120;27;19938;-65
2021/08/24 09:19:10;;;;;;;;;;;;;;;22.83;50.06;102715.81;5101960;27;20220;-65
2021/08/24 09:21:40;;;;;;;;;;;;;;;22.80;50.12;102715.06;5103897;27;19931;-65
2021/08/24 09:24:14;;;;;;;;;;;;;;;22.80;49.81;102723.16;5103605;27;21043;-65
2021/08/24 09:26:58;;;;;;;;;;;;;;;22.85;49.52;102713.91;5105163;27;20606;-65
2021/08/24 09:29:28;;;;;;;;;;;;;;;22.88;49.45;102719.16;5096658;27;19932;-67
2021/08/24 09:31:56;;;;;;;;;;;;;;;22.92;49.35;102706.41;5102818;27;20368;-67
2021/08/24 09:34:26;;;;;;;;;;;;;;;22.92;49.07;102716.31;5101563;27;19938;-67
2021/08/24 09:36:54;;;;;;;;;;;;;;;22.95;49.21;102713.47;5104274;27;20379;-65
2021/08/24 09:39:40;;;;;;;;;;;;;;;22.96;49.38;102716.09;5099767;27;19963;-65
2021/08/24 09:42:10;;;;;;;;;;;;;;;22.98;49.20;102713.31;5097782;27;20030;-65
2021/08/24 09:44:38;;;;;;;;;;;;;;;22.96;48.93;102713.38;5098152;27;20464;-66
2021/08/24 09:47:07;;;;;;;;;;;;;;;22.99;49.16;102709.66;5105950;27;19983;-66
2021/08/24 09:49:38;;;;;;;;;;;;;;;23.00;49.03;102706.88;5099436;27;19938;-65
2021/08/24 09:52:07;;;;;;;;;;;;;;;23.05;49.15;102712.06;5100184;27;19959;-65
2021/08/24 09:54:38;;;;;;;;;;;;;;;23.06;49.31;102711.13;5098208;27;20038;-65
2021/08/24 09:57:15;;;;;;;;;;;;;;;23.10;49.27;102706.44;5096122;27;20051;-65
2021/08/24 10:00:07;;;;;;;;;;;;;;;23.11;49.27;102710.88;5099529;27;20257;-65
2021/08/24 10:02:40;;;;;;;;;;;;;;;23.12;49.00;102718.03;5100990;27;20398;-65
2021/08/24 10:05:11;;;;;;;;;;;;;;;23.13;48.55;102725.19;5101447;27;19932;-67
2021/08/24 10:07:40;;;;;;;;;;;;;;;23.20;48.47;102722.13;5103531;27;19931;-67
2021/08/24 10:10:10;;;;;;;;;;;;;;;23.26;49.13;102717.34;5098765;27;20015;-66
2021/08/24 10:12:46;;;;;;;;;;;;;;;23.25;48.84;102712.94;5100515;27;20030;-66
2021/08/24 10:15:27;;;;;;;;;;;;;;;23.25;48.83;102716.50;5104739;27;19958;-68
2021/08/24 10:18:03;;;;;;;;;;;;;;;23.27;49.07;102706.50;5100894;27;19938;-67
2021/08/24 10:20:32;;;;;;;;;;;;;;;23.28;49.21;102701.97;5103668;27;19931;-67
2021/08/24 10:23:01;;;;;;;;;;;;;;;23.35;49.13;102704.28;5107640;27;20012;-68
2021/08/24 10:25:34;;;;;;;;;;;;;;;23.35;48.61;102696.19;5099007;27;19938;-67
2021/08/24 10:28:05;;;;;;;;;;;;;;;23.33;48.33;102698.06;5104777;27;19931;-68
2021/08/24 10:30:42;;;;;;;;;;;;;;;23.36;48.37;102697.94;5104522;27;19931;-68
2021/08/24 10:33:17;;;;;;;;;;;;;;;23.37;48.57;102688.00;5105399;27;19931;-68
2021/08/24 10:35:51;;;;;;;;;;;;;;;23.44;48.92;102697.56;5105985;27;20604;-68
2021/08/24 10:38:19;;;;;;;;;;;;;;;23.46;48.95;102684.81;5101705;27;19950;-68
2021/08/24 10:40:47;;;;;;;;;;;;;;;23.46;49.01;102683.97;5102030;27;19932;-67
2021/08/24 10:43:20;;;;;;;;;;;;;;;23.47;49.19;102685.72;5108806;27;20538;-68
2021/08/24 10:46:04;;;;;;;;;;;;;;;23.49;48.67;102686.50;5106499;27;19931;-68
2021/08/24 10:48:34;;;;;;;;;;;;;;;23.47;48.67;102678.47;5104875;27;20409;-68
2021/08/24 10:51:06;;;;;;;;;;;;;;;23.46;48.18;102668.63;5107076;27;20008;-67
2021/08/24 10:53:40;;;;;;;;;;;;;;;23.46;48.12;102673.16;5097124;27;19932;-67
2021/08/24 10:56:11;;;;;;;;;;;;;;;23.53;47.75;102672.78;5101611;27;20019;-67
2021/08/24 10:58:44;;;;;;;;;;;;;;;23.55;47.97;102672.69;5102133;27;19931;-67
2021/08/24 11:01:18;;;;;;;;;;;;;;;23.53;48.03;102678.16;5103588;27;19978;-67
2021/08/24 11:04:07;;;;;;;;;;;;;;;23.57;48.22;102678.84;5102352;27;20031;-67
2021/08/24 11:06:37;;;;;;;;;;;;;;;23.58;48.48;102671.66;5093402;27;19935;-68
2021/08/24 11:09:14;;;;;;;;;;;;;;;23.61;48.67;102672.38;5096520;27;19928;-68
2021/08/24 11:11:45;;;;;;;;;;;;;;;23.66;48.39;102667.56;5101649;27;19931;-68
2021/08/24 11:14:20;;;;;;;;;;;;;;;23.69;48.08;102671.94;5102011;27;19954;-68
2021/08/24 11:16:56;;;;;;;;;;;;;;;23.65;47.62;102668.56;5103131;27;19932;-67
2021/08/24 11:19:32;;;;;;;;;;;;;;;23.67;47.35;102654.94;5097752;27;19932;-67
2021/08/24 11:22:05;;;;;;;;;;;;;;;23.68;47.18;102664.81;5093341;27;20400;-68
2021/08/24 11:24:41;;;;;;;;;;;;;;;23.67;47.47;102650.41;5101019;27;19932;-68
2021/08/24 11:27:16;;;;;;;;;;;;;;;23.74;47.72;102644.69;5099377;27;19931;-67
2021/08/24 11:29:49;;;;;;;;;;;;;;;23.71;47.95;102649.28;5096216;27;20616;-67
2021/08/24 11:32:20;;;;;;;;;;;;;;;23.75;47.74;102649.16;5098333;27;19927;-67
2021/08/24 11:34:52;;;;;;;;;;;;;;;23.77;48.35;102649.91;5100089;27;19980;-67
2021/08/24 11:37:24;;;;;;;;;;;;;;;23.81;47.95;102646.09;5097918;27;19931;-67
2021/08/24 11:39:53;;;;;;;;;;;;;;;23.84;47.60;102644.09;5101160;27;20312;-67
2021/08/24 11:42:27;;;;;;;;;;;;;;;23.77;47.28;102641.81;5101248;27;20054;-66
2021/08/24 11:44:57;;;;;;;;;;;;;;;23.73;47.20;102648.34;5100346;27;20284;-67
2021/08/24 11:47:31;;;;;;;;;;;;;;;23.74;46.82;102644.69;5097740;27;20022;-67
2021/08/24 11:50:02;;;;;;;;;;;;;;;23.74;46.68;102636.59;5093072;27;19978;-67
2021/08/24 11:52:35;;;;;;;;;;;;;;;23.79;46.98;102642.63;5100761;27;19939;-67
2021/08/24 11:55:07;;;;;;;;;;;;;;;23.80;47.10;102626.31;5099859;27;19932;-67
2021/08/24 11:57:42;;;;;;;;;;;;;;;23.86;47.41;102635.91;5101910;27;20015;-67
2021/08/24 12:00:11;;;;;;;;;;;;;;;23.91;47.04;102644.69;5101657;27;20017;-67
2021/08/24 12:02:42;;;;;;;;;;;;;;;23.89;47.12;102638.47;5092330;27;19931;-67
2021/08/24 12:05:15;;;;;;;;;;;;;;;23.91;47.01;102638.41;5096972;27;19927;-67
2021/08/24 12:07:44;;;;;;;;;;;;;;;23.86;46.71;102642.22;5099359;27;19942;-67
2021/08/24 12:10:18;;;;;;;;;;;;;;;23.88;46.31;102636.72;5099728;27;20028;-67
2021/08/24 12:12:48;;;;;;;;;;;;;;;23.85;46.52;102636.91;5100461;27;20961;-67
2021/08/24 12:15:26;;;;;;;;;;;;;;;23.88;46.62;102636.72;5100090;27;19935;-67
2021/08/24 12:18:01;;;;;;;;;;;;;;;23.90;47.00;102642.94;5094004;27;19931;-67
2021/08/24 12:20:32;;;;;;;;;;;;;;;23.97;47.02;102635.38;5099935;27;19932;-67
2021/08/24 12:23:01;;;;;;;;;;;;;;;23.97;47.41;102643.50;5098602;27;20292;-67
2021/08/24 12:25:32;;;;;;;;;;;;;;;23.97;47.59;102638.94;5098377;27;20020;-67
2021/08/24 12:28:05;;;;;;;;;;;;;;;24.01;47.23;102642.38;5097065;27;19971;-67
2021/08/24 12:30:36;;;;;;;;;;;;;;;23.96;47.11;102639.91;5091820;27;19932;-67
2021/08/24 12:33:38;;;;;;;;;;;;;;;23.92;46.85;102641.03;5091089;27;19928;-67
2021/08/24 12:36:25;;;;;;;;;;;;;;;23.98;46.65;102634.41;5100195;27;21195;-67
2021/08/24 12:38:55;;;;;;;;;;;;;;;23.91;46.82;102625.75;5096998;27;19930;-68
2021/08/24 12:41:44;;;;;;;;;;;;;;;23.98;47.22;102640.69;5097640;27;19950;-67
2021/08/24 12:44:18;;;;;;;;;;;;;;;24.06;47.29;102634.00;5097418;27;19931;-68
2021/08/24 12:46:46;;;;;;;;;;;;;;;24.02;47.77;102636.00;5097405;27;19931;-67
2021/08/24 12:49:29;;;;;;;;;;;;;;;24.07;47.41;102635.75;5100596;27;19931;-66
2021/08/24 12:52:00;;;;;;;;;;;;;;;24.06;47.40;102637.59;5101691;27;19931;-67